Clay, New York
Current Conditions -  °F | °C
As of 4:54 AM on Friday 21 Nov 2014 (Local Time) from KSYR Reporting Station
Light Snow Light Snow  
Wind Chill: 10°   Ceiling: 6500
Heat Index: 24°   Visibility: 9mi
Dew Point: 13°   Wind: 20mph
Humidity: 62%   Direction: 250°WSW
Pressure: 30.06"   Gusts: NA
Location:  43.19°N, 76.17°W
Report Text: KSYR 210954Z 25017KT 9SM -SN FEW014 FEW039 OVC065 M04/M11 A3006 RMK AO2 SLP183 P0000 T10441106 VISNO NW $
Loading
Personal Weather Stations






























Interactive Weather Map New forecast layout! Learn more

10-Day Weather Forecast

Advertisements
Track Severe Weather on mobile